sensor_id;sensor_type;location;lat;lon;timestamp;P1;durP1;ratioP1;P2;durP2;ratioP2
54717;SDS011;40615;40.736;-74.480;2022-12-18T00:00:15;15.40;;;2.35;;
54717;SDS011;40615;40.736;-74.480;2022-12-18T00:02:16;16.08;;;2.90;;
54717;SDS011;40615;40.736;-74.480;2022-12-18T00:04:21;18.50;;;3.75;;
54717;SDS011;40615;40.736;-74.480;2022-12-18T00:06:24;15.30;;;4.15;;
54717;SDS011;40615;40.736;-74.480;2022-12-18T00:08:26;23.58;;;3.15;;
54717;SDS011;40615;40.736;-74.480;2022-12-18T00:10:28;24.70;;;4.93;;
54717;SDS011;40615;40.736;-74.480;2022-12-18T00:12:29;11.50;;;4.82;;
54717;SDS011;40615;40.736;-74.480;2022-12-18T00:14:30;20.98;;;5.38;;
54717;SDS011;40615;40.736;-74.480;2022-12-18T00:16:31;14.30;;;3.67;;
54717;SDS011;40615;40.736;-74.480;2022-12-18T00:18:33;20.17;;;4.55;;
54717;SDS011;40615;40.736;-74.480;2022-12-18T00:20:37;10.32;;;3.20;;
54717;SDS011;40615;40.736;-74.480;2022-12-18T00:22:39;15.13;;;3.10;;
54717;SDS011;40615;40.736;-74.480;2022-12-18T00:24:40;19.75;;;5.50;;
54717;SDS011;40615;40.736;-74.480;2022-12-18T00:26:41;32.60;;;7.35;;
54717;SDS011;40615;40.736;-74.480;2022-12-18T00:28:43;28.27;;;6.03;;
54717;SDS011;40615;40.736;-74.480;2022-12-18T00:30:44;20.38;;;7.90;;
54717;SDS011;40615;40.736;-74.480;2022-12-18T00:32:45;31.90;;;8.73;;
54717;SDS011;40615;40.736;-74.480;2022-12-18T00:34:46;24.20;;;7.85;;
54717;SDS011;40615;40.736;-74.480;2022-12-18T00:36:47;25.75;;;8.05;;
54717;SDS011;40615;40.736;-74.480;2022-12-18T00:38:49;27.23;;;8.70;;
54717;SDS011;40615;40.736;-74.480;2022-12-18T00:40:49;34.25;;;8.73;;
54717;SDS011;40615;40.736;-74.480;2022-12-18T00:42:50;32.97;;;7.93;;
54717;SDS011;40615;40.736;-74.480;2022-12-18T00:44:57;24.17;;;7.47;;
54717;SDS011;40615;40.736;-74.480;2022-12-18T00:46:58;38.55;;;7.25;;
54717;SDS011;40615;40.736;-74.480;2022-12-18T00:48:59;30.83;;;7.03;;
54717;SDS011;40615;40.736;-74.480;2022-12-18T00:51:00;26.42;;;7.25;;
54717;SDS011;40615;40.736;-74.480;2022-12-18T00:53:01;22.05;;;6.97;;
54717;SDS011;40615;40.736;-74.480;2022-12-18T00:55:02;19.50;;;6.68;;
54717;SDS011;40615;40.736;-74.480;2022-12-18T00:57:03;27.98;;;6.70;;
54717;SDS011;40615;40.736;-74.480;2022-12-18T00:59:04;23.05;;;6.05;;
54717;SDS011;40615;40.736;-74.480;2022-12-18T01:01:05;18.52;;;5.97;;
54717;SDS011;40615;40.736;-74.480;2022-12-18T01:03:07;22.08;;;5.90;;
54717;SDS011;40615;40.736;-74.480;2022-12-18T01:05:08;25.23;;;5.45;;
54717;SDS011;40615;40.736;-74.480;2022-12-18T01:07:10;22.23;;;5.97;;
54717;SDS011;40615;40.736;-74.480;2022-12-18T01:09:11;13.10;;;4.90;;
54717;SDS011;40615;40.736;-74.480;2022-12-18T01:11:13;19.13;;;5.90;;
54717;SDS011;40615;40.736;-74.480;2022-12-18T01:13:17;23.48;;;6.47;;
54717;SDS011;40615;40.736;-74.480;2022-12-18T01:15:18;18.60;;;5.00;;
54717;SDS011;40615;40.736;-74.480;2022-12-18T01:17:21;14.63;;;5.00;;
54717;SDS011;40615;40.736;-74.480;2022-12-18T01:19:22;14.85;;;4.85;;
54717;SDS011;40615;40.736;-74.480;2022-12-18T01:21:23;12.75;;;5.05;;
54717;SDS011;40615;40.736;-74.480;2022-12-18T01:23:24;19.88;;;5.03;;
54717;SDS011;40615;40.736;-74.480;2022-12-18T01:25:27;12.45;;;4.03;;
54717;SDS011;40615;40.736;-74.480;2022-12-18T01:27:27;11.80;;;4.25;;
54717;SDS011;40615;40.736;-74.480;2022-12-18T01:29:28;27.90;;;5.38;;
54717;SDS011;40615;40.736;-74.480;2022-12-18T01:31:30;14.75;;;4.18;;
54717;SDS011;40615;40.736;-74.480;2022-12-18T01:33:33;14.77;;;4.70;;
54717;SDS011;40615;40.736;-74.480;2022-12-18T01:35:39;16.98;;;4.25;;
54717;SDS011;40615;40.736;-74.480;2022-12-18T01:37:41;13.45;;;4.45;;
54717;SDS011;40615;40.736;-74.480;2022-12-18T01:39:42;11.70;;;3.78;;
54717;SDS011;40615;40.736;-74.480;2022-12-18T01:41:43;9.57;;;3.70;;
54717;SDS011;40615;40.736;-74.480;2022-12-18T01:44:46;13.57;;;4.43;;
54717;SDS011;40615;40.736;-74.480;2022-12-18T01:46:42;11.27;;;4.25;;
54717;SDS011;40615;40.736;-74.480;2022-12-18T01:48:43;12.77;;;3.05;;
54717;SDS011;40615;40.736;-74.480;2022-12-18T01:50:47;13.23;;;3.40;;
54717;SDS011;40615;40.736;-74.480;2022-12-18T01:52:51;8.60;;;3.42;;
54717;SDS011;40615;40.736;-74.480;2022-12-18T01:55:13;4.07;;;3.03;;
54717;SDS011;40615;40.736;-74.480;2022-12-18T01:57:16;10.10;;;4.05;;
54717;SDS011;40615;40.736;-74.480;2022-12-18T01:59:17;15.75;;;3.30;;
54717;SDS011;40615;40.736;-74.480;2022-12-18T02:01:19;11.02;;;3.50;;
54717;SDS011;40615;40.736;-74.480;2022-12-18T02:03:22;7.20;;;2.88;;
54717;SDS011;40615;40.736;-74.480;2022-12-18T02:05:29;9.43;;;3.17;;
54717;SDS011;40615;40.736;-74.480;2022-12-18T02:08:16;6.95;;;3.10;;
54717;SDS011;40615;40.736;-74.480;2022-12-18T02:17:31;6.05;;;2.58;;
54717;SDS011;40615;40.736;-74.480;2022-12-18T02:27:33;7.82;;;2.42;;
54717;SDS011;40615;40.736;-74.480;2022-12-18T02:29:53;10.88;;;3.15;;
54717;SDS011;40615;40.736;-74.480;2022-12-18T02:31:56;6.28;;;2.50;;
54717;SDS011;40615;40.736;-74.480;2022-12-18T02:34:00;7.28;;;3.20;;
54717;SDS011;40615;40.736;-74.480;2022-12-18T02:36:05;17.45;;;2.55;;
54717;SDS011;40615;40.736;-74.480;2022-12-18T02:38:07;8.60;;;2.33;;
54717;SDS011;40615;40.736;-74.480;2022-12-18T02:40:08;12.65;;;2.60;;
54717;SDS011;40615;40.736;-74.480;2022-12-18T02:42:10;19.20;;;2.80;;
54717;SDS011;40615;40.736;-74.480;2022-12-18T02:44:12;7.78;;;2.38;;
54717;SDS011;40615;40.736;-74.480;2022-12-18T02:46:48;9.68;;;2.58;;
54717;SDS011;40615;40.736;-74.480;2022-12-18T02:48:43;10.13;;;2.42;;
54717;SDS011;40615;40.736;-74.480;2022-12-18T02:50:45;7.00;;;2.17;;
54717;SDS011;40615;40.736;-74.480;2022-12-18T02:53:18;10.48;;;2.28;;
54717;SDS011;40615;40.736;-74.480;2022-12-18T02:55:28;8.68;;;2.67;;
54717;SDS011;40615;40.736;-74.480;2022-12-18T02:57:49;11.60;;;2.78;;
54717;SDS011;40615;40.736;-74.480;2022-12-18T03:00:12;10.38;;;2.45;;
54717;SDS011;40615;40.736;-74.480;2022-12-18T03:04:38;12.65;;;2.35;;
54717;SDS011;40615;40.736;-74.480;2022-12-18T03:06:51;11.75;;;2.80;;
54717;SDS011;40615;40.736;-74.480;2022-12-18T03:08:57;5.90;;;2.30;;
54717;SDS011;40615;40.736;-74.480;2022-12-18T03:11:02;2.67;;;1.58;;
54717;SDS011;40615;40.736;-74.480;2022-12-18T03:13:08;5.63;;;2.03;;
54717;SDS011;40615;40.736;-74.480;2022-12-18T03:15:14;9.60;;;2.13;;
54717;SDS011;40615;40.736;-74.480;2022-12-18T03:17:19;4.30;;;2.08;;
54717;SDS011;40615;40.736;-74.480;2022-12-18T03:19:24;5.97;;;1.77;;
54717;SDS011;40615;40.736;-74.480;2022-12-18T03:21:29;7.90;;;2.25;;
54717;SDS011;40615;40.736;-74.480;2022-12-18T03:23:39;7.10;;;1.95;;
54717;SDS011;40615;40.736;-74.480;2022-12-18T03:25:44;6.93;;;2.13;;
54717;SDS011;40615;40.736;-74.480;2022-12-18T03:27:48;6.10;;;2.38;;
54717;SDS011;40615;40.736;-74.480;2022-12-18T03:30:03;8.07;;;2.67;;
54717;SDS011;40615;40.736;-74.480;2022-12-18T03:32:15;8.80;;;1.95;;
54717;SDS011;40615;40.736;-74.480;2022-12-18T03:34:26;4.40;;;1.98;;
54717;SDS011;40615;40.736;-74.480;2022-12-18T03:36:31;20.73;;;2.33;;
54717;SDS011;40615;40.736;-74.480;2022-12-18T03:38:32;7.93;;;2.20;;
54717;SDS011;40615;40.736;-74.480;2022-12-18T03:43:08;5.38;;;1.67;;
54717;SDS011;40615;40.736;-74.480;2022-12-18T03:45:24;3.40;;;1.50;;
54717;SDS011;40615;40.736;-74.480;2022-12-18T03:47:34;4.55;;;1.90;;
54717;SDS011;40615;40.736;-74.480;2022-12-18T03:51:50;4.28;;;2.55;;
54717;SDS011;40615;40.736;-74.480;2022-12-18T03:53:58;3.53;;;1.80;;
54717;SDS011;40615;40.736;-74.480;2022-12-18T03:56:03;2.42;;;1.70;;
54717;SDS011;40615;40.736;-74.480;2022-12-18T03:58:05;7.85;;;1.95;;
54717;SDS011;40615;40.736;-74.480;2022-12-18T04:00:09;6.43;;;1.60;;
54717;SDS011;40615;40.736;-74.480;2022-12-18T04:02:13;2.45;;;1.45;;
54717;SDS011;40615;40.736;-74.480;2022-12-18T04:04:17;2.70;;;1.65;;
54717;SDS011;40615;40.736;-74.480;2022-12-18T04:06:20;4.03;;;1.40;;
54717;SDS011;40615;40.736;-74.480;2022-12-18T04:08:21;6.90;;;1.92;;
54717;SDS011;40615;40.736;-74.480;2022-12-18T04:10:23;3.17;;;1.65;;
54717;SDS011;40615;40.736;-74.480;2022-12-18T04:12:25;4.40;;;1.50;;
54717;SDS011;40615;40.736;-74.480;2022-12-18T04:14:26;6.45;;;1.40;;
54717;SDS011;40615;40.736;-74.480;2022-12-18T04:16:27;5.95;;;1.65;;
54717;SDS011;40615;40.736;-74.480;2022-12-18T04:18:29;4.13;;;1.60;;
54717;SDS011;40615;40.736;-74.480;2022-12-18T04:20:30;3.28;;;1.60;;
54717;SDS011;40615;40.736;-74.480;2022-12-18T04:22:31;6.35;;;1.77;;
54717;SDS011;40615;40.736;-74.480;2022-12-18T04:24:32;5.63;;;1.58;;
54717;SDS011;40615;40.736;-74.480;2022-12-18T04:26:33;4.22;;;1.92;;
54717;SDS011;40615;40.736;-74.480;2022-12-18T04:28:34;3.33;;;1.35;;
54717;SDS011;40615;40.736;-74.480;2022-12-18T04:30:34;4.75;;;1.60;;
54717;SDS011;40615;40.736;-74.480;2022-12-18T04:32:35;4.10;;;1.75;;
54717;SDS011;40615;40.736;-74.480;2022-12-18T04:34:36;2.55;;;1.55;;
54717;SDS011;40615;40.736;-74.480;2022-12-18T04:36:37;2.53;;;1.63;;
54717;SDS011;40615;40.736;-74.480;2022-12-18T04:38:38;6.65;;;1.20;;
54717;SDS011;40615;40.736;-74.480;2022-12-18T04:40:39;4.95;;;1.98;;
54717;SDS011;40615;40.736;-74.480;2022-12-18T04:42:40;2.55;;;1.38;;
54717;SDS011;40615;40.736;-74.480;2022-12-18T04:44:41;4.07;;;1.83;;
54717;SDS011;40615;40.736;-74.480;2022-12-18T04:46:42;5.25;;;1.80;;
54717;SDS011;40615;40.736;-74.480;2022-12-18T04:48:44;4.40;;;1.45;;
54717;SDS011;40615;40.736;-74.480;2022-12-18T04:50:46;5.00;;;1.55;;
54717;SDS011;40615;40.736;-74.480;2022-12-18T04:52:48;7.40;;;1.70;;
54717;SDS011;40615;40.736;-74.480;2022-12-18T04:54:49;2.22;;;1.40;;
54717;SDS011;40615;40.736;-74.480;2022-12-18T04:56:49;2.10;;;1.42;;
54717;SDS011;40615;40.736;-74.480;2022-12-18T04:58:50;3.05;;;1.55;;
54717;SDS011;40615;40.736;-74.480;2022-12-18T05:00:51;3.13;;;1.63;;
54717;SDS011;40615;40.736;-74.480;2022-12-18T05:02:52;2.45;;;1.45;;
54717;SDS011;40615;40.736;-74.480;2022-12-18T05:04:53;1.70;;;1.38;;
54717;SDS011;40615;40.736;-74.480;2022-12-18T05:06:54;1.98;;;1.80;;
54717;SDS011;40615;40.736;-74.480;2022-12-18T05:08:55;4.10;;;1.58;;
54717;SDS011;40615;40.736;-74.480;2022-12-18T05:11:03;4.40;;;1.70;;
54717;SDS011;40615;40.736;-74.480;2022-12-18T05:13:08;2.45;;;1.20;;
54717;SDS011;40615;40.736;-74.480;2022-12-18T05:15:09;2.90;;;1.40;;
54717;SDS011;40615;40.736;-74.480;2022-12-18T05:17:10;3.25;;;1.40;;
54717;SDS011;40615;40.736;-74.480;2022-12-18T05:19:11;2.92;;;1.40;;
54717;SDS011;40615;40.736;-74.480;2022-12-18T05:21:12;2.85;;;1.55;;
54717;SDS011;40615;40.736;-74.480;2022-12-18T05:23:13;1.50;;;1.17;;
54717;SDS011;40615;40.736;-74.480;2022-12-18T05:25:13;3.13;;;1.60;;
54717;SDS011;40615;40.736;-74.480;2022-12-18T05:27:15;3.63;;;1.02;;
54717;SDS011;40615;40.736;-74.480;2022-12-18T05:29:16;1.42;;;1.25;;
54717;SDS011;40615;40.736;-74.480;2022-12-18T05:31:16;3.97;;;0.95;;
54717;SDS011;40615;40.736;-74.480;2022-12-18T05:33:18;3.10;;;1.52;;
54717;SDS011;40615;40.736;-74.480;2022-12-18T05:35:19;4.40;;;1.45;;
54717;SDS011;40615;40.736;-74.480;2022-12-18T05:37:20;2.53;;;1.30;;
54717;SDS011;40615;40.736;-74.480;2022-12-18T05:39:24;1.50;;;1.27;;
54717;SDS011;40615;40.736;-74.480;2022-12-18T05:41:25;2.17;;;1.30;;
54717;SDS011;40615;40.736;-74.480;2022-12-18T05:43:27;2.25;;;1.83;;
54717;SDS011;40615;40.736;-74.480;2022-12-18T05:45:29;1.90;;;1.35;;
54717;SDS011;40615;40.736;-74.480;2022-12-18T05:47:29;1.30;;;1.20;;
54717;SDS011;40615;40.736;-74.480;2022-12-18T05:49:30;1.58;;;1.48;;
54717;SDS011;40615;40.736;-74.480;2022-12-18T05:51:31;1.70;;;1.40;;
54717;SDS011;40615;40.736;-74.480;2022-12-18T05:53:32;1.30;;;1.13;;
54717;SDS011;40615;40.736;-74.480;2022-12-18T05:55:34;1.70;;;1.10;;
54717;SDS011;40615;40.736;-74.480;2022-12-18T05:57:36;1.30;;;1.02;;
54717;SDS011;40615;40.736;-74.480;2022-12-18T05:59:36;3.97;;;1.33;;
54717;SDS011;40615;40.736;-74.480;2022-12-18T06:01:37;2.45;;;1.30;;
54717;SDS011;40615;40.736;-74.480;2022-12-18T06:03:38;0.98;;;0.88;;
54717;SDS011;40615;40.736;-74.480;2022-12-18T06:05:41;2.08;;;1.13;;
54717;SDS011;40615;40.736;-74.480;2022-12-18T06:07:44;2.53;;;1.55;;
54717;SDS011;40615;40.736;-74.480;2022-12-18T06:09:44;1.40;;;1.00;;
54717;SDS011;40615;40.736;-74.480;2022-12-18T06:11:45;1.67;;;1.25;;
54717;SDS011;40615;40.736;-74.480;2022-12-18T06:13:46;1.42;;;1.10;;
54717;SDS011;40615;40.736;-74.480;2022-12-18T06:15:50;2.53;;;1.27;;
54717;SDS011;40615;40.736;-74.480;2022-12-18T06:17:51;4.18;;;1.40;;
54717;SDS011;40615;40.736;-74.480;2022-12-18T06:19:52;1.25;;;1.08;;
54717;SDS011;40615;40.736;-74.480;2022-12-18T06:21:53;1.30;;;1.20;;
54717;SDS011;40615;40.736;-74.480;2022-12-18T06:23:54;1.67;;;1.20;;
54717;SDS011;40615;40.736;-74.480;2022-12-18T06:25:56;1.85;;;1.33;;
54717;SDS011;40615;40.736;-74.480;2022-12-18T06:27:56;2.30;;;1.42;;
54717;SDS011;40615;40.736;-74.480;2022-12-18T06:29:57;1.20;;;1.10;;
54717;SDS011;40615;40.736;-74.480;2022-12-18T06:31:58;1.90;;;1.63;;
54717;SDS011;40615;40.736;-74.480;2022-12-18T06:34:01;1.55;;;1.23;;
54717;SDS011;40615;40.736;-74.480;2022-12-18T06:36:12;2.20;;;1.35;;
54717;SDS011;40615;40.736;-74.480;2022-12-18T06:38:14;14.10;;;1.33;;
54717;SDS011;40615;40.736;-74.480;2022-12-18T06:40:15;4.95;;;1.17;;
54717;SDS011;40615;40.736;-74.480;2022-12-18T06:42:16;1.27;;;1.05;;
54717;SDS011;40615;40.736;-74.480;2022-12-18T06:44:16;1.73;;;1.10;;
54717;SDS011;40615;40.736;-74.480;2022-12-18T06:46:18;1.40;;;1.20;;
54717;SDS011;40615;40.736;-74.480;2022-12-18T06:48:19;1.58;;;0.98;;
54717;SDS011;40615;40.736;-74.480;2022-12-18T06:50:20;2.78;;;1.20;;
54717;SDS011;40615;40.736;-74.480;2022-12-18T06:52:21;2.15;;;1.05;;
54717;SDS011;40615;40.736;-74.480;2022-12-18T06:54:21;1.63;;;1.02;;
54717;SDS011;40615;40.736;-74.480;2022-12-18T06:56:22;2.80;;;1.23;;
54717;SDS011;40615;40.736;-74.480;2022-12-18T06:58:23;1.30;;;1.20;;
54717;SDS011;40615;40.736;-74.480;2022-12-18T07:00:24;1.85;;;1.33;;
54717;SDS011;40615;40.736;-74.480;2022-12-18T07:02:25;2.05;;;1.27;;
54717;SDS011;40615;40.736;-74.480;2022-12-18T07:04:29;0.95;;;0.95;;
54717;SDS011;40615;40.736;-74.480;2022-12-18T07:06:31;1.30;;;1.08;;
54717;SDS011;40615;40.736;-74.480;2022-12-18T07:08:32;2.13;;;1.00;;
54717;SDS011;40615;40.736;-74.480;2022-12-18T07:10:33;1.67;;;1.38;;
54717;SDS011;40615;40.736;-74.480;2022-12-18T07:12:40;1.35;;;1.23;;
54717;SDS011;40615;40.736;-74.480;2022-12-18T07:14:41;0.98;;;0.93;;
54717;SDS011;40615;40.736;-74.480;2022-12-18T07:16:42;1.63;;;1.30;;
54717;SDS011;40615;40.736;-74.480;2022-12-18T07:18:43;2.40;;;1.13;;
54717;SDS011;40615;40.736;-74.480;2022-12-18T07:20:44;1.58;;;1.30;;
54717;SDS011;40615;40.736;-74.480;2022-12-18T07:22:45;1.42;;;1.10;;
54717;SDS011;40615;40.736;-74.480;2022-12-18T07:24:46;2.63;;;1.20;;
54717;SDS011;40615;40.736;-74.480;2022-12-18T07:26:47;1.35;;;1.13;;
54717;SDS011;40615;40.736;-74.480;2022-12-18T07:28:48;2.75;;;1.10;;
54717;SDS011;40615;40.736;-74.480;2022-12-18T07:30:50;1.33;;;1.10;;
54717;SDS011;40615;40.736;-74.480;2022-12-18T07:32:50;1.65;;;1.10;;
54717;SDS011;40615;40.736;-74.480;2022-12-18T07:34:51;1.40;;;1.20;;
54717;SDS011;40615;40.736;-74.480;2022-12-18T07:36:52;1.63;;;1.13;;
54717;SDS011;40615;40.736;-74.480;2022-12-18T07:38:53;1.15;;;0.93;;
54717;SDS011;40615;40.736;-74.480;2022-12-18T07:40:54;2.70;;;1.15;;
54717;SDS011;40615;40.736;-74.480;2022-12-18T07:43:00;1.85;;;1.10;;
54717;SDS011;40615;40.736;-74.480;2022-12-18T07:45:01;3.05;;;1.48;;
54717;SDS011;40615;40.736;-74.480;2022-12-18T07:47:03;1.45;;;1.20;;
54717;SDS011;40615;40.736;-74.480;2022-12-18T07:49:04;1.15;;;1.05;;
54717;SDS011;40615;40.736;-74.480;2022-12-18T07:51:05;3.00;;;1.25;;
54717;SDS011;40615;40.736;-74.480;2022-12-18T07:53:07;2.45;;;1.13;;
54717;SDS011;40615;40.736;-74.480;2022-12-18T07:55:08;2.80;;;1.38;;
54717;SDS011;40615;40.736;-74.480;2022-12-18T07:57:09;1.27;;;1.17;;
54717;SDS011;40615;40.736;-74.480;2022-12-18T07:59:10;2.13;;;1.15;;
54717;SDS011;40615;40.736;-74.480;2022-12-18T08:01:11;1.20;;;1.10;;
54717;SDS011;40615;40.736;-74.480;2022-12-18T08:03:12;1.70;;;1.30;;
54717;SDS011;40615;40.736;-74.480;2022-12-18T08:05:13;1.13;;;1.10;;
54717;SDS011;40615;40.736;-74.480;2022-12-18T08:07:14;1.33;;;0.95;;
54717;SDS011;40615;40.736;-74.480;2022-12-18T08:09:15;1.45;;;1.08;;
54717;SDS011;40615;40.736;-74.480;2022-12-18T08:11:15;1.15;;;1.05;;
54717;SDS011;40615;40.736;-74.480;2022-12-18T08:13:16;1.17;;;1.00;;
54717;SDS011;40615;40.736;-74.480;2022-12-18T08:15:17;1.52;;;1.27;;
54717;SDS011;40615;40.736;-74.480;2022-12-18T08:17:19;1.33;;;1.20;;
54717;SDS011;40615;40.736;-74.480;2022-12-18T08:19:20;1.25;;;1.13;;
54717;SDS011;40615;40.736;-74.480;2022-12-18T08:21:25;1.10;;;1.00;;
54717;SDS011;40615;40.736;-74.480;2022-12-18T08:23:28;1.05;;;0.95;;
54717;SDS011;40615;40.736;-74.480;2022-12-18T08:25:28;2.35;;;1.10;;
54717;SDS011;40615;40.736;-74.480;2022-12-18T08:27:29;2.90;;;1.17;;
54717;SDS011;40615;40.736;-74.480;2022-12-18T08:29:30;1.35;;;1.25;;
54717;SDS011;40615;40.736;-74.480;2022-12-18T08:31:32;1.27;;;1.10;;
54717;SDS011;40615;40.736;-74.480;2022-12-18T08:33:33;2.03;;;1.30;;
54717;SDS011;40615;40.736;-74.480;2022-12-18T08:35:34;1.33;;;1.23;;
54717;SDS011;40615;40.736;-74.480;2022-12-18T08:37:37;2.58;;;1.20;;
54717;SDS011;40615;40.736;-74.480;2022-12-18T08:39:38;1.48;;;0.95;;
54717;SDS011;40615;40.736;-74.480;2022-12-18T08:41:38;1.15;;;1.00;;
54717;SDS011;40615;40.736;-74.480;2022-12-18T08:43:39;1.63;;;1.30;;
54717;SDS011;40615;40.736;-74.480;2022-12-18T08:45:59;2.78;;;1.25;;
54717;SDS011;40615;40.736;-74.480;2022-12-18T08:48:00;4.82;;;1.13;;
54717;SDS011;40615;40.736;-74.480;2022-12-18T08:50:01;1.05;;;0.95;;
54717;SDS011;40615;40.736;-74.480;2022-12-18T08:52:02;1.13;;;1.02;;
54717;SDS011;40615;40.736;-74.480;2022-12-18T08:54:03;1.90;;;1.20;;
54717;SDS011;40615;40.736;-74.480;2022-12-18T08:56:05;1.73;;;1.00;;
54717;SDS011;40615;40.736;-74.480;2022-12-18T08:58:06;1.88;;;1.10;;
54717;SDS011;40615;40.736;-74.480;2022-12-18T09:00:07;1.05;;;1.02;;
54717;SDS011;40615;40.736;-74.480;2022-12-18T09:02:11;1.23;;;1.00;;
54717;SDS011;40615;40.736;-74.480;2022-12-18T09:04:12;4.30;;;1.00;;
54717;SDS011;40615;40.736;-74.480;2022-12-18T09:06:14;1.20;;;1.10;;
54717;SDS011;40615;40.736;-74.480;2022-12-18T09:08:17;2.38;;;1.48;;
54717;SDS011;40615;40.736;-74.480;2022-12-18T09:10:17;1.23;;;1.13;;
54717;SDS011;40615;40.736;-74.480;2022-12-18T09:12:18;1.50;;;0.90;;
54717;SDS011;40615;40.736;-74.480;2022-12-18T09:14:19;3.40;;;1.30;;
54717;SDS011;40615;40.736;-74.480;2022-12-18T09:16:22;0.80;;;0.80;;
54717;SDS011;40615;40.736;-74.480;2022-12-18T09:18:24;1.80;;;1.08;;
54717;SDS011;40615;40.736;-74.480;2022-12-18T09:20:25;1.60;;;1.10;;
54717;SDS011;40615;40.736;-74.480;2022-12-18T09:22:28;1.17;;;1.10;;
54717;SDS011;40615;40.736;-74.480;2022-12-18T09:24:29;5.65;;;1.02;;
54717;SDS011;40615;40.736;-74.480;2022-12-18T09:26:30;1.70;;;1.42;;
54717;SDS011;40615;40.736;-74.480;2022-12-18T09:28:31;1.60;;;1.35;;
54717;SDS011;40615;40.736;-74.480;2022-12-18T09:30:32;1.33;;;1.02;;
54717;SDS011;40615;40.736;-74.480;2022-12-18T09:32:35;1.75;;;1.30;;
54717;SDS011;40615;40.736;-74.480;2022-12-18T09:34:36;2.38;;;1.20;;
54717;SDS011;40615;40.736;-74.480;2022-12-18T09:36:37;1.50;;;1.27;;
54717;SDS011;40615;40.736;-74.480;2022-12-18T09:38:38;0.98;;;0.82;;
54717;SDS011;40615;40.736;-74.480;2022-12-18T09:40:43;2.28;;;1.15;;
54717;SDS011;40615;40.736;-74.480;2022-12-18T09:42:46;1.50;;;1.17;;
54717;SDS011;40615;40.736;-74.480;2022-12-18T09:44:54;3.08;;;1.27;;
54717;SDS011;40615;40.736;-74.480;2022-12-18T09:49:18;1.40;;;1.00;;
54717;SDS011;40615;40.736;-74.480;2022-12-18T09:51:24;2.08;;;1.20;;
54717;SDS011;40615;40.736;-74.480;2022-12-18T09:53:31;1.30;;;1.08;;
54717;SDS011;40615;40.736;-74.480;2022-12-18T09:55:39;1.02;;;0.90;;
54717;SDS011;40615;40.736;-74.480;2022-12-18T09:57:45;3.53;;;1.40;;
54717;SDS011;40615;40.736;-74.480;2022-12-18T10:00:06;1.15;;;1.05;;
54717;SDS011;40615;40.736;-74.480;2022-12-18T10:02:22;0.93;;;0.88;;
54717;SDS011;40615;40.736;-74.480;2022-12-18T10:04:25;1.08;;;0.98;;
54717;SDS011;40615;40.736;-74.480;2022-12-18T10:11:09;1.40;;;0.90;;
54717;SDS011;40615;40.736;-74.480;2022-12-18T10:25:23;0.93;;;0.90;;
54717;SDS011;40615;40.736;-74.480;2022-12-18T10:27:29;2.05;;;0.98;;
54717;SDS011;40615;40.736;-74.480;2022-12-18T10:29:31;1.10;;;0.88;;
54717;SDS011;40615;40.736;-74.480;2022-12-18T10:31:31;1.27;;;1.00;;
54717;SDS011;40615;40.736;-74.480;2022-12-18T10:33:33;0.85;;;0.85;;
54717;SDS011;40615;40.736;-74.480;2022-12-18T10:35:34;1.65;;;0.90;;
54717;SDS011;40615;40.736;-74.480;2022-12-18T10:37:36;0.95;;;0.82;;
54717;SDS011;40615;40.736;-74.480;2022-12-18T10:40:13;3.03;;;0.90;;
54717;SDS011;40615;40.736;-74.480;2022-12-18T10:42:17;0.80;;;0.80;;
54717;SDS011;40615;40.736;-74.480;2022-12-18T10:44:21;2.10;;;1.10;;
54717;SDS011;40615;40.736;-74.480;2022-12-18T10:46:23;0.80;;;0.80;;
54717;SDS011;40615;40.736;-74.480;2022-12-18T10:48:24;0.77;;;0.77;;
54717;SDS011;40615;40.736;-74.480;2022-12-18T10:50:29;1.10;;;1.00;;
54717;SDS011;40615;40.736;-74.480;2022-12-18T10:52:33;0.73;;;0.70;;
54717;SDS011;40615;40.736;-74.480;2022-12-18T10:54:34;1.85;;;0.93;;
54717;SDS011;40615;40.736;-74.480;2022-12-18T10:56:36;0.80;;;0.80;;
54717;SDS011;40615;40.736;-74.480;2022-12-18T10:58:38;1.80;;;1.05;;
54717;SDS011;40615;40.736;-74.480;2022-12-18T11:00:39;1.60;;;1.02;;
54717;SDS011;40615;40.736;-74.480;2022-12-18T11:02:41;0.77;;;0.75;;
54717;SDS011;40615;40.736;-74.480;2022-12-18T11:04:49;1.05;;;0.95;;
54717;SDS011;40615;40.736;-74.480;2022-12-18T11:07:02;1.38;;;0.90;;
54717;SDS011;40615;40.736;-74.480;2022-12-18T11:09:21;1.05;;;0.98;;
54717;SDS011;40615;40.736;-74.480;2022-12-18T11:11:24;1.10;;;0.77;;
54717;SDS011;40615;40.736;-74.480;2022-12-18T11:13:26;1.38;;;1.10;;
54717;SDS011;40615;40.736;-74.480;2022-12-18T11:15:29;1.20;;;1.00;;
54717;SDS011;40615;40.736;-74.480;2022-12-18T11:17:31;1.65;;;0.95;;
54717;SDS011;40615;40.736;-74.480;2022-12-18T11:19:38;1.25;;;1.15;;
54717;SDS011;40615;40.736;-74.480;2022-12-18T11:21:41;1.02;;;1.02;;
54717;SDS011;40615;40.736;-74.480;2022-12-18T11:23:49;0.80;;;0.80;;
54717;SDS011;40615;40.736;-74.480;2022-12-18T11:25:55;2.75;;;1.10;;
54717;SDS011;40615;40.736;-74.480;2022-12-18T11:28:03;0.95;;;0.80;;
54717;SDS011;40615;40.736;-74.480;2022-12-18T11:30:24;2.30;;;1.40;;
54717;SDS011;40615;40.736;-74.480;2022-12-18T11:34:32;0.90;;;0.85;;
54717;SDS011;40615;40.736;-74.480;2022-12-18T11:36:35;0.70;;;0.70;;
54717;SDS011;40615;40.736;-74.480;2022-12-18T11:38:40;0.80;;;0.80;;
54717;SDS011;40615;40.736;-74.480;2022-12-18T11:40:44;1.67;;;1.20;;
54717;SDS011;40615;40.736;-74.480;2022-12-18T11:42:58;1.80;;;0.98;;
54717;SDS011;40615;40.736;-74.480;2022-12-18T11:47:16;1.20;;;1.00;;
54717;SDS011;40615;40.736;-74.480;2022-12-18T11:49:33;1.58;;;1.08;;
54717;SDS011;40615;40.736;-74.480;2022-12-18T11:51:36;1.77;;;1.00;;
54717;SDS011;40615;40.736;-74.480;2022-12-18T11:53:41;4.95;;;1.10;;
54717;SDS011;40615;40.736;-74.480;2022-12-18T12:00:28;1.33;;;0.80;;
54717;SDS011;40615;40.736;-74.480;2022-12-18T12:14:55;4.35;;;1.17;;
54717;SDS011;40615;40.736;-74.480;2022-12-18T12:20:05;3.08;;;0.80;;
54717;SDS011;40615;40.736;-74.480;2022-12-18T12:22:28;2.40;;;1.02;;
54717;SDS011;40615;40.736;-74.480;2022-12-18T12:27:29;3.38;;;0.98;;
54717;SDS011;40615;40.736;-74.480;2022-12-18T12:30:11;3.30;;;1.05;;
54717;SDS011;40615;40.736;-74.480;2022-12-18T12:39:23;2.63;;;0.90;;
54717;SDS011;40615;40.736;-74.480;2022-12-18T12:41:34;1.52;;;0.75;;
54717;SDS011;40615;40.736;-74.480;2022-12-18T12:43:56;1.33;;;0.65;;
54717;SDS011;40615;40.736;-74.480;2022-12-18T12:46:02;4.18;;;1.00;;
54717;SDS011;40615;40.736;-74.480;2022-12-18T12:48:05;1.05;;;0.85;;
54717;SDS011;40615;40.736;-74.480;2022-12-18T12:50:17;3.53;;;1.13;;
54717;SDS011;40615;40.736;-74.480;2022-12-18T12:52:36;1.33;;;0.90;;
54717;SDS011;40615;40.736;-74.480;2022-12-18T12:54:43;1.92;;;1.08;;
54717;SDS011;40615;40.736;-74.480;2022-12-18T12:56:47;4.18;;;1.13;;
54717;SDS011;40615;40.736;-74.480;2022-12-18T13:01:12;3.75;;;1.35;;
54717;SDS011;40615;40.736;-74.480;2022-12-18T13:06:05;5.55;;;1.45;;
54717;SDS011;40615;40.736;-74.480;2022-12-18T13:08:24;5.05;;;1.60;;
54717;SDS011;40615;40.736;-74.480;2022-12-18T13:10:44;1.20;;;1.10;;
54717;SDS011;40615;40.736;-74.480;2022-12-18T13:17:44;5.50;;;1.58;;
54717;SDS011;40615;40.736;-74.480;2022-12-18T13:19:49;6.85;;;2.10;;
54717;SDS011;40615;40.736;-74.480;2022-12-18T13:21:53;7.43;;;1.90;;
54717;SDS011;40615;40.736;-74.480;2022-12-18T13:23:56;10.90;;;1.90;;
54717;SDS011;40615;40.736;-74.480;2022-12-18T13:28:20;14.90;;;2.53;;
54717;SDS011;40615;40.736;-74.480;2022-12-18T13:30:41;13.10;;;2.13;;